North West — NTHWST — position and weather

sailwx.info

Track history (hours):
 
Tides and Currents Weather Stations Pressure Air Temp Water Temp Dewpoint Dewpoint Depression Visibility Wind Speed Wind Dir Waves Ship Positions

North West

Last reported at 2018-Feb-24 16:42 UTC. Time now 2018-Feb-24 20:20 UTC.
Position S 27°31' E 153°24'.

Length 20 m; draft 1.5 m.

Type: Pleasure craft. MMSI: 503026110.

Date/timePositionNaut miles runAvg speedWind from/ knotsBaromVisibWave heightAir tempDewpointWater temp
2018-Feb-24 16:42S 27°31' E 153°24'0 0.0
2018-Feb-24 11:03S 27°31' E 153°24'0 0.0
2018-Feb-24 09:06S 27°31' E 153°24'0 0.0
2018-Feb-24 08:42S 27°31' E 153°24'0 0.0
2018-Feb-24 08:27S 27°31' E 153°24'0 0.0
2018-Feb-24 07:39S 27°31' E 153°24'0 0.0
2018-Feb-24 07:27S 27°31' E 153°24'0 0.0
2018-Feb-24 05:03S 27°31' E 153°24'0 0.0
2018-Feb-24 04:48S 27°31' E 153°24'0 0.0
2018-Feb-24 04:27S 27°31' E 153°24'0 0.0
2018-Feb-24 04:00S 27°31' E 153°24'0 0.0
2018-Feb-24 03:27S 27°31' E 153°24'0 0.0
2018-Feb-24 02:57S 27°31' E 153°24'0 0.0
2018-Feb-23 22:57S 27°31' E 153°24'0 0.0
2018-Feb-23 13:54S 27°31' E 153°24'0 0.0
2018-Feb-23 11:24S 27°31' E 153°24'0 0.0
2018-Feb-23 11:00S 27°31' E 153°24'  
2018-Feb-17 00:26S 27°28' E 153°20'3 7.1
2018-Feb-17 00:00S 27°29' E 153°23'2 4.3
2018-Feb-16 23:29S 27°28' E 153°25'0 0.0
2018-Feb-16 22:52S 27°28' E 153°25'0 0.0
2018-Feb-16 22:30S 27°28' E 153°25'0 0.0
2018-Feb-16 22:00S 27°28' E 153°25'0 0.0
2018-Feb-16 21:20S 27°28' E 153°25'0 0.0
2018-Feb-16 20:59S 27°28' E 153°25'0 0.0
2018-Feb-16 20:30S 27°28' E 153°25'0 0.0
2018-Feb-16 20:00S 27°28' E 153°25'0 0.0
2018-Feb-16 19:30S 27°28' E 153°25'0 0.0
2018-Feb-16 19:00S 27°28' E 153°25'0 0.0
2018-Feb-16 18:30S 27°28' E 153°25'0 0.0
2018-Feb-16 18:00S 27°28' E 153°25'0 0.0
2018-Feb-16 17:30S 27°28' E 153°25'0 0.0
2018-Feb-16 16:56S 27°28' E 153°25'0 0.0
2018-Feb-16 16:28S 27°28' E 153°25'0 0.0
2018-Feb-16 15:57S 27°28' E 153°25'0 0.0
2018-Feb-16 15:30S 27°28' E 153°25'0 0.0
2018-Feb-16 15:00S 27°28' E 153°25'0 0.0
2018-Feb-16 14:28S 27°28' E 153°25'0 0.0
2018-Feb-16 14:00S 27°28' E 153°25'0 0.0
2018-Feb-16 13:30S 27°28' E 153°25'0 0.0
2018-Feb-16 13:00S 27°28' E 153°25'0 0.0
2018-Feb-16 12:30S 27°28' E 153°25'0 0.0
2018-Feb-16 11:54S 27°28' E 153°25'0 0.0
2018-Feb-16 11:30S 27°28' E 153°25'0 0.0
2018-Feb-16 11:00S 27°28' E 153°25'2 3.2
2018-Feb-16 10:30S 27°29' E 153°23'3 6.9
2018-Feb-16 10:00S 27°31' E 153°20'8 0.2
2018-Feb-14 17:53S 27°27' E 153°12'  
Track history (hours):
 
Tides and Currents Weather Stations Pressure Air Temp Water Temp Dewpoint Dewpoint Depression Visibility Wind Speed Wind Dir Waves Ship Positions

North West

Last reported at 2018-Feb-24 16:42 UTC. Time now 2018-Feb-24 20:20 UTC.
Position S 27°31' E 153°24'.

Length 20 m; draft 1.5 m.

Type: Pleasure craft. MMSI: 503026110.

Date/timePositionNaut miles runAvg speedWind from/ knotsBaromVisibWave heightAir tempDewpointWater temp
2018-Feb-24 16:42S 27°31' E 153°24'0 0.0
2018-Feb-24 11:03S 27°31' E 153°24'0 0.0
2018-Feb-24 09:06S 27°31' E 153°24'0 0.0
2018-Feb-24 08:42S 27°31' E 153°24'0 0.0
2018-Feb-24 08:27S 27°31' E 153°24'0 0.0
2018-Feb-24 07:39S 27°31' E 153°24'0 0.0
2018-Feb-24 07:27S 27°31' E 153°24'0 0.0
2018-Feb-24 05:03S 27°31' E 153°24'0 0.0
2018-Feb-24 04:48S 27°31' E 153°24'0 0.0
2018-Feb-24 04:27S 27°31' E 153°24'0 0.0
2018-Feb-24 04:00S 27°31' E 153°24'0 0.0
2018-Feb-24 03:27S 27°31' E 153°24'0 0.0
2018-Feb-24 02:57S 27°31' E 153°24'0 0.0
2018-Feb-23 22:57S 27°31' E 153°24'0 0.0
2018-Feb-23 13:54S 27°31' E 153°24'0 0.0
2018-Feb-23 11:24S 27°31' E 153°24'0 0.0
2018-Feb-23 11:00S 27°31' E 153°24'  
2018-Feb-17 00:26S 27°28' E 153°20'3 7.1
2018-Feb-17 00:00S 27°29' E 153°23'2 4.3
2018-Feb-16 23:29S 27°28' E 153°25'0 0.0
2018-Feb-16 22:52S 27°28' E 153°25'0 0.0
2018-Feb-16 22:30S 27°28' E 153°25'0 0.0
2018-Feb-16 22:00S 27°28' E 153°25'0 0.0
2018-Feb-16 21:20S 27°28' E 153°25'0 0.0
2018-Feb-16 20:59S 27°28' E 153°25'0 0.0
2018-Feb-16 20:30S 27°28' E 153°25'0 0.0
2018-Feb-16 20:00S 27°28' E 153°25'0 0.0
2018-Feb-16 19:30S 27°28' E 153°25'0 0.0
2018-Feb-16 19:00S 27°28' E 153°25'0 0.0
2018-Feb-16 18:30S 27°28' E 153°25'0 0.0
2018-Feb-16 18:00S 27°28' E 153°25'0 0.0
2018-Feb-16 17:30S 27°28' E 153°25'0 0.0
2018-Feb-16 16:56S 27°28' E 153°25'0 0.0
2018-Feb-16 16:28S 27°28' E 153°25'0 0.0
2018-Feb-16 15:57S 27°28' E 153°25'0 0.0
2018-Feb-16 15:30S 27°28' E 153°25'0 0.0
2018-Feb-16 15:00S 27°28' E 153°25'0 0.0
2018-Feb-16 14:28S 27°28' E 153°25'0 0.0
2018-Feb-16 14:00S 27°28' E 153°25'0 0.0
2018-Feb-16 13:30S 27°28' E 153°25'0 0.0
2018-Feb-16 13:00S 27°28' E 153°25'0 0.0
2018-Feb-16 12:30S 27°28' E 153°25'0 0.0
2018-Feb-16 11:54S 27°28' E 153°25'0 0.0
2018-Feb-16 11:30S 27°28' E 153°25'0 0.0
2018-Feb-16 11:00S 27°28' E 153°25'2 3.2
2018-Feb-16 10:30S 27°29' E 153°23'3 6.9
2018-Feb-16 10:00S 27°31' E 153°20'8 0.2
2018-Feb-14 17:53S 27°27' E 153°12'  

Dump ship's entire track history